メインページ
METAR-TAF:

METAR-TAF

空港 :

バーレーン, バーレーン

バーレーン国際空港

緯度: 26-16N, 経度: 050-39E, 海抜: 2m

現時点の気象観測

当レポートは25分前の17:00(UTC)に作成
の風 6kt
気温 22°C
湿度 88%
気圧 1008 hPa
視程: 7000m

METAR: OBBI 251700Z 09006KT 7000 NSC 22/20 Q1008 NOSIG

時間: 20:25 (17:25 UTC)

予報

当レポートは6時間25分前の11:00(UTC)に作成
予報は25日の 12時(UTC)から 26日の 18時(UTC)まで有効
南東の風 15kt、最大25ktの突風を伴う
視程10km以上
高度2500ftの雲は散在している
確率 30% :
25日の 13時(UTC)から 26日の 18時(UTC)まで一時的に
変向風 20kt、最大35ktの突風を伴う
視程: 4000m
高度4000ftの雲は散在している, 積乱雲.
激しい雷雨, 雨
25日の 16時(UTC)から 25日の 18時(UTC)まで徐々に
の風 14kt

TAF: OBBI 251100Z 2512/2618 13015G25KT 9999 SCT025 PROB30 TEMPO 2513/2618 VRB20G35KT 4000 TSRA SCT040CB BECMG 2516/2518 35014KT

4,000以上の空港の気象観測と天気予報(METAR報とTAF報)

利用可能な観測所は地図上に黄色い丸と赤い丸で示す。

丸の上にカーソルを重ねると観測所名を参照できる。

次にクリックすると気象観測と天気予報を参照できる。

マップの切り替え:黒色「×」印の緑ボタンをクリックして拡大、「-」印の緑ボタンをクリックして縮小、緑色の三角印をクリックして隣りの地図に切り替え


METAR-TAF: